Time;durP1;ratioP1;P1;durP2;ratioP2;P2;SDS_P1;SDS_P2;PMS_P1;PMS_P2;Temp;Humidity;BMP_temperature;BMP_pressure;BME280_temperature;BME280_humidity;BME280_pressure;Samples;Min_cycle;Max_cycle;Signal;HPM_P1;HPM_P2
2023/02/04 00:00:51;;;;;;;10.45;9.45;;;;;;;;;;5049089;28;20033;-78
2023/02/04 00:03:17;;;;;;;10.32;9.30;;;;;;;;;;5031078;28;20065;-79
2023/02/04 00:05:43;;;;;;;8.98;8.02;;;;;;;;;;5049013;28;20068;-78
2023/02/04 00:08:09;;;;;;;7.82;6.70;;;;;;;;;;5030856;28;20041;-79
2023/02/04 00:10:35;;;;;;;10.63;9.43;;;;;;;;;;5049899;28;20037;-79
2023/02/04 00:13:01;;;;;;;8.30;7.50;;;;;;;;;;5053036;28;20598;-78
2023/02/04 00:15:27;;;;;;;9.30;7.82;;;;;;;;;;5053126;28;20051;-79
2023/02/04 00:17:53;;;;;;;12.25;9.15;;;;;;;;;;5035042;28;20036;-79
2023/02/04 00:20:20;;;;;;;8.73;7.82;;;;;;;;;;5052922;28;20041;-78
2023/02/04 00:22:46;;;;;;;8.98;8.07;;;;;;;;;;5052908;28;20040;-79
2023/02/04 00:25:12;;;;;;;9.98;9.05;;;;;;;;;;5052672;28;20037;-78
2023/02/04 00:27:38;;;;;;;7.07;6.40;;;;;;;;;;5052789;28;20037;-78
2023/02/04 00:30:05;;;;;;;14.73;9.10;;;;;;;;;;5052728;28;20052;-79
2023/02/04 00:32:30;;;;;;;7.53;6.75;;;;;;;;;;5052885;28;20039;-78
2023/02/04 00:34:57;;;;;;;10.90;9.43;;;;;;;;;;5052820;28;20465;-79
2023/02/04 00:37:25;;;;;;;10.82;8.38;;;;;;;;;;5053276;28;20037;-78
2023/02/04 00:39:51;;;;;;;13.50;9.77;;;;;;;;;;5053398;28;20045;-79
2023/02/04 00:42:17;;;;;;;13.25;9.52;;;;;;;;;;5052722;28;20024;-78
2023/02/04 00:44:43;;;;;;;15.55;9.82;;;;;;;;;;5053188;28;20120;-78
2023/02/04 00:47:09;;;;;;;11.70;8.75;;;;;;;;;;5052915;28;20116;-78
2023/02/04 00:49:35;;;;;;;10.93;7.45;;;;;;;;;;5034823;28;20116;-79
2023/02/04 00:52:01;;;;;;;12.25;9.75;;;;;;;;;;5052627;28;20032;-77
2023/02/04 00:54:27;;;;;;;13.45;8.75;;;;;;;;;;5052959;28;20388;-78
2023/02/04 00:56:54;;;;;;;10.73;9.18;;;;;;;;;;5035227;28;20090;-78
2023/02/04 00:59:20;;;;;;;13.93;11.13;;;;;;;;;;5057399;28;20033;-79
2023/02/04 01:01:46;;;;;;;13.63;9.25;;;;;;;;;;5064104;28;20487;-80
2023/02/04 01:04:13;;;;;;;12.75;9.75;;;;;;;;;;5046696;28;20104;-77
2023/02/04 01:06:39;;;;;;;13.13;10.20;;;;;;;;;;5048270;28;20088;-78
2023/02/04 01:09:07;;;;;;;11.77;10.02;;;;;;;;;;5045657;28;20068;-78
2023/02/04 01:11:33;;;;;;;11.48;9.48;;;;;;;;;;5034871;28;20029;-78
2023/02/04 01:13:59;;;;;;;10.32;9.27;;;;;;;;;;5052248;28;20116;-78
2023/02/04 01:16:25;;;;;;;11.40;9.38;;;;;;;;;;5051805;28;20617;-78
2023/02/04 01:18:54;;;;;;;16.50;9.98;;;;;;;;;;5052257;28;20162;-78
2023/02/04 01:21:21;;;;;;;11.55;9.27;;;;;;;;;;5051450;28;20519;-76
2023/02/04 01:23:48;;;;;;;15.23;11.48;;;;;;;;;;5017567;28;20132;-77
2023/02/04 01:26:15;;;;;;;11.50;9.95;;;;;;;;;;5051455;28;20033;-77
2023/02/04 01:28:41;;;;;;;15.23;8.50;;;;;;;;;;5051541;28;20037;-78
2023/02/04 01:31:07;;;;;;;11.70;9.45;;;;;;;;;;5051315;28;20041;-78
2023/02/04 01:33:33;;;;;;;12.88;9.68;;;;;;;;;;5017132;28;20041;-78
2023/02/04 01:35:59;;;;;;;10.55;8.27;;;;;;;;;;5051585;28;20083;-78
2023/02/04 01:38:26;;;;;;;9.55;8.45;;;;;;;;;;5033438;28;20036;-78
2023/02/04 01:40:52;;;;;;;9.05;7.47;;;;;;;;;;5051714;28;20044;-78
2023/02/04 01:43:21;;;;;;;8.07;6.68;;;;;;;;;;5033857;28;20057;-75
2023/02/04 01:45:48;;;;;;;10.23;7.75;;;;;;;;;;5033348;28;20037;-78
2023/02/04 01:48:19;;;;;;;18.40;14.10;;;;;;;;;;5050819;28;20037;-77
2023/02/04 01:50:52;;;;;;;24.55;17.20;;;;;;;;;;5050956;28;20029;-77
2023/02/04 01:53:23;;;;;;;23.38;13.23;;;;;;;;;;5050806;28;20075;-77
2023/02/04 01:55:49;;;;;;;9.87;7.63;;;;;;;;;;5033357;28;20395;-79
2023/02/04 01:58:15;;;;;;;12.13;9.43;;;;;;;;;;5033025;28;20068;-78
2023/02/04 02:00:42;;;;;;;14.65;11.80;;;;;;;;;;5051000;28;20036;-78
2023/02/04 02:03:09;;;;;;;13.65;11.40;;;;;;;;;;5051211;28;20142;-79
2023/02/04 02:05:36;;;;;;;13.77;10.27;;;;;;;;;;5051673;28;20044;-79
2023/02/04 02:08:02;;;;;;;9.68;8.75;;;;;;;;;;5033867;28;20040;-77
2023/02/04 02:10:29;;;;;;;12.95;11.40;;;;;;;;;;5033730;28;20413;-77
2023/02/04 02:12:55;;;;;;;13.50;10.57;;;;;;;;;;5033154;28;20044;-78
2023/02/04 02:15:22;;;;;;;11.85;10.15;;;;;;;;;;5050774;28;20064;-77
2023/02/04 02:17:50;;;;;;;13.55;10.10;;;;;;;;;;5050650;28;20415;-77
2023/02/04 02:20:16;;;;;;;14.35;10.68;;;;;;;;;;5050590;28;20055;-79
2023/02/04 02:23:09;;;;;;;13.95;10.95;;;;;;;;;;5032659;28;20040;-78
2023/02/04 02:25:35;;;;;;;14.43;10.40;;;;;;;;;;5012579;28;20064;-78
2023/02/04 02:28:02;;;;;;;15.18;10.45;;;;;;;;;;5032931;28;20044;-76
2023/02/04 02:30:29;;;;;;;15.88;11.68;;;;;;;;;;5032295;28;20534;-77
2023/02/04 02:32:55;;;;;;;14.75;10.88;;;;;;;;;;5049853;28;20599;-78
2023/02/04 02:35:21;;;;;;;13.68;9.05;;;;;;;;;;5015999;28;20045;-79
2023/02/04 02:37:48;;;;;;;12.48;10.07;;;;;;;;;;5032244;28;20044;-78
2023/02/04 02:40:14;;;;;;;14.02;9.63;;;;;;;;;;5050316;28;20057;-78
2023/02/04 02:42:41;;;;;;;8.75;7.78;;;;;;;;;;5032197;28;20040;-78
2023/02/04 02:45:09;;;;;;;12.95;9.68;;;;;;;;;;5050203;28;20079;-78
2023/02/04 02:47:36;;;;;;;8.55;7.40;;;;;;;;;;5032524;28;20079;-78
2023/02/04 02:50:02;;;;;;;11.55;8.48;;;;;;;;;;5050108;28;20040;-79
2023/02/04 02:52:28;;;;;;;14.00;9.02;;;;;;;;;;5031939;28;20025;-78
2023/02/04 02:54:54;;;;;;;10.57;8.80;;;;;;;;;;5032095;28;20507;-78
2023/02/04 02:57:21;;;;;;;12.13;9.73;;;;;;;;;;5015374;28;20510;-78
2023/02/04 02:59:47;;;;;;;13.57;9.13;;;;;;;;;;5015528;28;20581;-78
2023/02/04 03:02:15;;;;;;;10.95;8.70;;;;;;;;;;5031676;28;20117;-79
2023/02/04 03:04:43;;;;;;;12.13;9.82;;;;;;;;;;5015586;28;20542;-79
2023/02/04 03:07:10;;;;;;;9.50;8.05;;;;;;;;;;5032028;28;20040;-80
2023/02/04 03:09:36;;;;;;;9.75;7.90;;;;;;;;;;5015476;28;20033;-79
2023/02/04 03:12:04;;;;;;;10.18;9.02;;;;;;;;;;5049664;28;20110;-78
2023/02/04 03:14:30;;;;;;;10.45;8.10;;;;;;;;;;5015592;28;20048;-78
2023/02/04 03:16:56;;;;;;;11.27;9.50;;;;;;;;;;5031686;28;20503;-78
2023/02/04 03:19:22;;;;;;;7.80;6.68;;;;;;;;;;5049113;28;20383;-78
2023/02/04 03:21:48;;;;;;;10.00;8.02;;;;;;;;;;5015217;28;20108;-79
2023/02/04 03:24:14;;;;;;;9.38;8.38;;;;;;;;;;5050163;28;20045;-79
2023/02/04 03:26:41;;;;;;;13.10;8.18;;;;;;;;;;5015118;28;20438;-79
2023/02/04 03:29:08;;;;;;;9.38;8.45;;;;;;;;;;5049513;28;20044;-78
2023/02/04 03:31:34;;;;;;;7.28;6.57;;;;;;;;;;5031373;28;20061;-78
2023/02/04 03:34:00;;;;;;;9.00;7.45;;;;;;;;;;5014903;28;20414;-79
2023/02/04 03:36:26;;;;;;;7.78;6.97;;;;;;;;;;5049738;28;20403;-81
2023/02/04 03:38:53;;;;;;;7.60;6.80;;;;;;;;;;5049108;28;20040;-80
2023/02/04 03:41:19;;;;;;;7.45;6.78;;;;;;;;;;5031045;28;20375;-79
2023/02/04 03:43:45;;;;;;;7.03;6.43;;;;;;;;;;5011029;28;20451;-79
2023/02/04 03:46:11;;;;;;;8.98;7.40;;;;;;;;;;5027878;28;20041;-79
2023/02/04 03:48:37;;;;;;;10.90;7.53;;;;;;;;;;5028977;28;20461;-79
2023/02/04 03:51:03;;;;;;;7.78;7.05;;;;;;;;;;5029233;28;20060;-79
2023/02/04 03:53:29;;;;;;;9.00;7.68;;;;;;;;;;5029070;28;20696;-78
2023/02/04 03:55:55;;;;;;;7.43;6.47;;;;;;;;;;5029243;28;20044;-79
2023/02/04 03:58:21;;;;;;;9.40;7.45;;;;;;;;;;5029108;28;20030;-80
2023/02/04 04:00:47;;;;;;;7.30;6.60;;;;;;;;;;5028514;28;20124;-79
2023/02/04 04:03:14;;;;;;;7.45;6.75;;;;;;;;;;5029406;28;20132;-80
2023/02/04 04:05:40;;;;;;;8.18;6.85;;;;;;;;;;5027921;28;20124;-80
2023/02/04 04:08:06;;;;;;;7.47;6.75;;;;;;;;;;5029364;28;20563;-79
2023/02/04 04:10:32;;;;;;;8.75;6.53;;;;;;;;;;5027511;28;20233;-79
2023/02/04 04:12:58;;;;;;;6.18;5.63;;;;;;;;;;5027994;28;20044;-81
2023/02/04 04:15:24;;;;;;;8.40;7.60;;;;;;;;;;5030197;28;20535;-80
2023/02/04 04:17:50;;;;;;;6.50;5.70;;;;;;;;;;5030154;28;20092;-80
2023/02/04 04:20:16;;;;;;;7.20;6.50;;;;;;;;;;5028038;28;20475;-80
2023/02/04 04:22:42;;;;;;;9.45;8.05;;;;;;;;;;5029081;28;20061;-79
2023/02/04 04:25:08;;;;;;;9.05;8.23;;;;;;;;;;5028908;28;20040;-80
2023/02/04 04:27:34;;;;;;;11.10;7.68;;;;;;;;;;5029416;28;20041;-81
2023/02/04 04:30:00;;;;;;;9.65;8.57;;;;;;;;;;5031429;28;20037;-80
2023/02/04 04:32:26;;;;;;;8.73;7.88;;;;;;;;;;5033161;28;20056;-80
2023/02/04 04:34:52;;;;;;;8.52;7.57;;;;;;;;;;5018270;28;20477;-80
2023/02/04 04:37:18;;;;;;;10.45;7.32;;;;;;;;;;5017682;28;20079;-79
2023/02/04 04:39:44;;;;;;;7.88;7.18;;;;;;;;;;5028874;28;20076;-79
2023/02/04 04:42:10;;;;;;;7.93;7.13;;;;;;;;;;5013782;28;20408;-80
2023/02/04 04:44:36;;;;;;;8.45;7.28;;;;;;;;;;5025968;28;20057;-79
2023/02/04 04:47:03;;;;;;;12.63;8.80;;;;;;;;;;5011129;28;20042;-80
2023/02/04 04:49:29;;;;;;;8.93;8.07;;;;;;;;;;5014656;28;20110;-80
2023/02/04 04:51:55;;;;;;;10.63;8.18;;;;;;;;;;5030862;28;20094;-80
2023/02/04 04:54:21;;;;;;;8.60;7.72;;;;;;;;;;5034084;28;20139;-80
2023/02/04 04:56:47;;;;;;;12.25;8.02;;;;;;;;;;5031949;28;20080;-81
2023/02/04 04:59:13;;;;;;;11.07;8.88;;;;;;;;;;5034490;28;20033;-79
2023/02/04 05:01:39;;;;;;;8.27;7.55;;;;;;;;;;5052577;28;20407;-80
2023/02/04 05:04:05;;;;;;;8.02;6.65;;;;;;;;;;5053371;28;20036;-80
2023/02/04 05:06:31;;;;;;;6.55;5.90;;;;;;;;;;5034390;28;20044;-79
2023/02/04 05:08:57;;;;;;;11.00;8.13;;;;;;;;;;5052104;28;20124;-79
2023/02/04 05:11:24;;;;;;;11.02;7.95;;;;;;;;;;5051787;28;20045;-79
2023/02/04 05:13:49;;;;;;;11.05;9.93;;;;;;;;;;5051633;28;20033;-79
2023/02/04 05:16:17;;;;;;;12.43;10.48;;;;;;;;;;5052071;28;20048;-80
2023/02/04 05:18:43;;;;;;;14.77;11.23;;;;;;;;;;5052334;28;20067;-79
2023/02/04 05:21:09;;;;;;;17.90;11.98;;;;;;;;;;5034430;28;20175;-80
2023/02/04 05:23:35;;;;;;;15.38;11.35;;;;;;;;;;5051529;28;20043;-79
2023/02/04 05:26:01;;;;;;;16.23;11.68;;;;;;;;;;5051800;28;20037;-80
2023/02/04 05:28:27;;;;;;;13.70;10.80;;;;;;;;;;5052770;28;20037;-81
2023/02/04 05:30:53;;;;;;;14.57;11.18;;;;;;;;;;5039943;28;20056;-81
2023/02/04 05:33:19;;;;;;;14.48;10.27;;;;;;;;;;5060743;28;20040;-82
2023/02/04 05:35:45;;;;;;;15.98;11.38;;;;;;;;;;5060570;28;20211;-82
2023/02/04 05:38:11;;;;;;;11.38;10.18;;;;;;;;;;5055891;28;20178;-83
2023/02/04 05:40:37;;;;;;;12.43;9.88;;;;;;;;;;5077601;28;20111;-82
2023/02/04 05:43:04;;;;;;;11.77;10.05;;;;;;;;;;5071988;28;20098;-82
2023/02/04 05:45:30;;;;;;;18.55;11.27;;;;;;;;;;5072945;28;20032;-84
2023/02/04 05:47:56;;;;;;;15.15;10.90;;;;;;;;;;5075289;28;20047;-85
2023/02/04 05:50:22;;;;;;;12.65;10.32;;;;;;;;;;5060980;28;20029;-83
2023/02/04 05:52:48;;;;;;;18.83;12.73;;;;;;;;;;5083786;28;20035;-83
2023/02/04 05:55:14;;;;;;;15.18;10.45;;;;;;;;;;5084482;28;20051;-84
2023/02/04 05:57:40;;;;;;;15.52;10.80;;;;;;;;;;5081877;28;20062;-84
2023/02/04 06:00:06;;;;;;;14.57;11.95;;;;;;;;;;5068812;28;20124;-83
2023/02/04 06:02:38;;;;;;;17.27;12.55;;;;;;;;;;5055159;28;20037;-85
2023/02/04 06:05:04;;;;;;;21.38;13.35;;;;;;;;;;5073518;28;20037;-85
2023/02/04 06:07:30;;;;;;;23.58;14.50;;;;;;;;;;5074480;28;20052;-85
2023/02/04 06:09:56;;;;;;;19.30;12.75;;;;;;;;;;5067822;28;20028;-84
2023/02/04 06:12:22;;;;;;;22.25;13.48;;;;;;;;;;5058809;28;20051;-82
2023/02/04 06:14:48;;;;;;;25.80;15.57;;;;;;;;;;5094346;28;20047;-83
2023/02/04 06:17:14;;;;;;;31.35;18.55;;;;;;;;;;5093753;28;20036;-86
2023/02/04 06:19:40;;;;;;;33.95;17.42;;;;;;;;;;5063995;28;20025;-86
2023/02/04 06:22:06;;;;;;;34.65;19.27;;;;;;;;;;5057051;28;20036;-84
2023/02/04 06:24:32;;;;;;;27.05;15.63;;;;;;;;;;5053894;28;20068;-85
2023/02/04 06:26:58;;;;;;;24.33;13.98;;;;;;;;;;5065907;28;20093;-84
2023/02/04 06:29:24;;;;;;;38.10;21.65;;;;;;;;;;5047929;28;20041;-84
2023/02/04 06:31:50;;;;;;;33.53;18.67;;;;;;;;;;5054481;28;20037;-83
2023/02/04 06:34:16;;;;;;;52.20;25.70;;;;;;;;;;5048372;28;20068;-85
2023/02/04 06:36:42;;;;;;;34.15;19.25;;;;;;;;;;5049159;28;20037;-85
2023/02/04 06:39:09;;;;;;;34.40;16.38;;;;;;;;;;5033828;28;20033;-85
2023/02/04 06:41:35;;;;;;;37.67;19.27;;;;;;;;;;5052380;28;20021;-84
2023/02/04 06:44:01;;;;;;;39.78;21.83;;;;;;;;;;5049906;28;20045;-84
2023/02/04 06:46:28;;;;;;;34.65;18.80;;;;;;;;;;5046439;28;20029;-84
2023/02/04 06:48:55;;;;;;;38.92;20.20;;;;;;;;;;5028593;28;20057;-84
2023/02/04 06:51:21;;;;;;;35.03;19.33;;;;;;;;;;5031593;28;20131;-84
2023/02/04 06:53:47;;;;;;;37.03;21.00;;;;;;;;;;5048337;28;20059;-85
2023/02/04 06:56:13;;;;;;;24.65;14.32;;;;;;;;;;5047715;28;20412;-84
2023/02/04 06:58:39;;;;;;;29.38;17.17;;;;;;;;;;5029572;28;20037;-84
2023/02/04 07:01:05;;;;;;;32.92;17.02;;;;;;;;;;5047300;28;20052;-84
2023/02/04 07:03:31;;;;;;;29.60;16.15;;;;;;;;;;5028930;28;20044;-83
2023/02/04 07:05:58;;;;;;;28.10;16.55;;;;;;;;;;5044892;28;20510;-85
2023/02/04 07:08:24;;;;;;;25.50;15.45;;;;;;;;;;5025692;28;20393;-84
2023/02/04 07:10:50;;;;;;;28.17;16.45;;;;;;;;;;5042895;28;20037;-84
2023/02/04 07:13:16;;;;;;;31.92;18.77;;;;;;;;;;5025290;28;20407;-83
2023/02/04 07:15:42;;;;;;;27.45;17.10;;;;;;;;;;5023913;28;20128;-83
2023/02/04 07:18:08;;;;;;;25.38;16.98;;;;;;;;;;5023245;28;20486;-83
2023/02/04 07:20:34;;;;;;;17.13;13.13;;;;;;;;;;5040941;28;20038;-82
2023/02/04 07:23:00;;;;;;;19.30;13.38;;;;;;;;;;5038581;28;20039;-82
2023/02/04 07:25:26;;;;;;;9.10;8.20;;;;;;;;;;5036046;28;20419;-83
2023/02/04 07:27:52;;;;;;;16.95;11.00;;;;;;;;;;5034333;28;20029;-84
2023/02/04 07:30:18;;;;;;;16.65;11.05;;;;;;;;;;5036710;28;20055;-83
2023/02/04 07:32:44;;;;;;;17.77;11.55;;;;;;;;;;5056226;28;20033;-83
2023/02/04 07:35:11;;;;;;;18.25;12.82;;;;;;;;;;5057821;28;20045;-85
2023/02/04 07:37:37;;;;;;;27.75;15.95;;;;;;;;;;5058669;28;20055;-85
2023/02/04 07:40:03;;;;;;;21.30;13.57;;;;;;;;;;5059347;28;20040;-82
2023/02/04 07:42:29;;;;;;;25.60;15.52;;;;;;;;;;5041192;28;20033;-84
2023/02/04 07:45:04;;;;;;;25.63;15.70;;;;;;;;;;5044833;28;20126;-81
2023/02/04 07:47:30;;;;;;;30.55;17.48;;;;;;;;;;5044243;28;20025;-83
2023/02/04 07:49:56;;;;;;;31.67;18.08;;;;;;;;;;5060890;28;20178;-83
2023/02/04 07:52:25;;;;;;;27.95;17.38;;;;;;;;;;5041752;28;20083;-82
2023/02/04 07:54:51;;;;;;;31.35;17.60;;;;;;;;;;5057696;28;20124;-84
2023/02/04 07:57:18;;;;;;;32.08;19.20;;;;;;;;;;5056707;28;20086;-82
2023/02/04 07:59:44;;;;;;;34.58;16.70;;;;;;;;;;5040085;28;20499;-84
2023/02/04 08:02:10;;;;;;;35.53;18.65;;;;;;;;;;5059408;28;20055;-83
2023/02/04 08:04:37;;;;;;;35.38;20.27;;;;;;;;;;5061968;28;20071;-84
2023/02/04 08:07:03;;;;;;;41.13;21.92;;;;;;;;;;5066738;28;20036;-84
2023/02/04 08:09:29;;;;;;;36.42;20.17;;;;;;;;;;5065548;28;20048;-85
2023/02/04 08:11:55;;;;;;;37.00;21.73;;;;;;;;;;5067355;28;20029;-85
2023/02/04 08:14:21;;;;;;;45.35;22.83;;;;;;;;;;5070953;28;20107;-85
2023/02/04 08:16:47;;;;;;;41.67;23.00;;;;;;;;;;5055494;28;20120;-85
2023/02/04 08:19:17;;;;;;;34.45;20.25;;;;;;;;;;5070892;28;20013;-85
2023/02/04 08:21:44;;;;;;;28.00;17.70;;;;;;;;;;5053390;28;20033;-85
2023/02/04 08:24:11;;;;;;;29.33;16.98;;;;;;;;;;5071688;28;20295;-85
2023/02/04 08:26:37;;;;;;;32.83;19.50;;;;;;;;;;5072427;28;20040;-85
2023/02/04 08:29:03;;;;;;;33.90;19.23;;;;;;;;;;5072267;28;20075;-83
2023/02/04 08:31:29;;;;;;;28.00;17.50;;;;;;;;;;5073838;28;20126;-85
2023/02/04 08:33:55;;;;;;;36.30;20.83;;;;;;;;;;5055977;28;20040;-84
2023/02/04 08:36:22;;;;;;;19.35;12.75;;;;;;;;;;5053226;28;20049;-83
2023/02/04 08:38:48;;;;;;;20.00;12.88;;;;;;;;;;5069707;28;20088;-85
2023/02/04 08:41:17;;;;;;;31.60;20.15;;;;;;;;;;5069613;28;20040;-84
2023/02/04 08:43:43;;;;;;;34.75;20.30;;;;;;;;;;5069263;28;20224;-84
2023/02/04 08:46:10;;;;;;;27.90;16.70;;;;;;;;;;5066688;28;20025;-85
2023/02/04 08:48:36;;;;;;;50.72;25.77;;;;;;;;;;5066264;28;20531;-86
2023/02/04 08:51:05;;;;;;;28.17;17.92;;;;;;;;;;5068873;28;20101;-84
2023/02/04 08:53:31;;;;;;;33.28;18.73;;;;;;;;;;5070377;28;20041;-83
2023/02/04 08:55:57;;;;;;;24.13;17.98;;;;;;;;;;5071896;28;20032;-84
2023/02/04 08:58:23;;;;;;;31.88;18.80;;;;;;;;;;5054576;28;20044;-82
2023/02/04 09:00:49;;;;;;;34.13;18.10;;;;;;;;;;5071241;28;20060;-84
2023/02/04 09:03:15;;;;;;;26.70;15.98;;;;;;;;;;5074517;28;20060;-84
2023/02/04 09:05:41;;;;;;;28.98;18.00;;;;;;;;;;5076994;28;20037;-84
2023/02/04 09:08:07;;;;;;;34.60;17.95;;;;;;;;;;5058917;28;20035;-85
2023/02/04 09:10:33;;;;;;;35.45;21.30;;;;;;;;;;5078364;28;20025;-86
2023/02/04 09:12:59;;;;;;;33.67;18.00;;;;;;;;;;5043952;28;20033;-86
2023/02/04 09:15:25;;;;;;;21.60;14.68;;;;;;;;;;5076243;28;20055;-84
2023/02/04 09:18:03;;;;;;;37.10;21.98;;;;;;;;;;5066063;28;20101;-82
2023/02/04 09:20:29;;;;;;;31.48;20.10;;;;;;;;;;5047815;28;20044;-83
2023/02/04 09:22:55;;;;;;;39.15;21.30;;;;;;;;;;5044855;28;20159;-82
2023/02/04 09:25:21;;;;;;;24.73;16.45;;;;;;;;;;5062634;28;20041;-83
2023/02/04 09:27:47;;;;;;;24.52;17.30;;;;;;;;;;5062611;28;20140;-82
2023/02/04 09:30:13;;;;;;;11.15;8.32;;;;;;;;;;5029674;28;20040;-83
2023/02/04 09:32:40;;;;;;;29.98;16.80;;;;;;;;;;5070590;28;20029;-85
2023/02/04 09:35:06;;;;;;;21.45;13.40;;;;;;;;;;5072081;28;20088;-84
2023/02/04 09:37:32;;;;;;;15.75;12.98;;;;;;;;;;5052966;28;20040;-83
2023/02/04 09:39:58;;;;;;;11.20;9.73;;;;;;;;;;5072410;28;20056;-82
2023/02/04 09:42:24;;;;;;;13.07;11.02;;;;;;;;;;5072807;28;20028;-81
2023/02/04 09:44:50;;;;;;;12.25;10.32;;;;;;;;;;5052320;28;20107;-82
2023/02/04 09:47:17;;;;;;;14.15;10.82;;;;;;;;;;5051545;28;20060;-83
2023/02/04 09:49:45;;;;;;;19.67;14.93;;;;;;;;;;5052943;28;20045;-81
2023/02/04 09:52:12;;;;;;;23.77;16.58;;;;;;;;;;5052635;28;20040;-83
2023/02/04 09:54:38;;;;;;;25.17;15.32;;;;;;;;;;5052645;28;20041;-83
2023/02/04 09:57:14;;;;;;;24.35;16.25;;;;;;;;;;5052054;28;20041;-82
2023/02/04 09:59:40;;;;;;;27.95;16.70;;;;;;;;;;5053178;28;20033;-83
2023/02/04 10:02:16;;;;;;;30.83;16.63;;;;;;;;;;5049864;28;20037;-84
2023/02/04 10:04:42;;;;;;;32.63;18.15;;;;;;;;;;5033235;28;20092;-82
2023/02/04 10:07:09;;;;;;;30.00;17.90;;;;;;;;;;5048898;28;20828;-83
2023/02/04 10:09:40;;;;;;;16.48;10.48;;;;;;;;;;5053037;28;20050;-83
2023/02/04 10:12:06;;;;;;;40.80;21.15;;;;;;;;;;5071362;28;20451;-84
2023/02/04 10:14:32;;;;;;;32.40;18.02;;;;;;;;;;5069986;28;20142;-84
2023/02/04 10:16:58;;;;;;;42.13;20.30;;;;;;;;;;5072057;28;20033;-84
2023/02/04 10:19:24;;;;;;;39.45;21.73;;;;;;;;;;5070554;28;20047;-83
2023/02/04 10:21:50;;;;;;;28.67;17.75;;;;;;;;;;5071499;28;20029;-84
2023/02/04 10:24:21;;;;;;;40.35;20.35;;;;;;;;;;5071711;28;20048;-84
2023/02/04 10:26:47;;;;;;;32.08;17.90;;;;;;;;;;5066084;28;20021;-81
2023/02/04 10:29:13;;;;;;;35.13;18.70;;;;;;;;;;5027155;28;20038;-83
2023/02/04 10:31:40;;;;;;;29.38;15.32;;;;;;;;;;5050533;28;20025;-83
2023/02/04 10:34:06;;;;;;;40.70;21.08;;;;;;;;;;5036408;28;20415;-81
2023/02/04 10:36:31;;;;;;;35.95;17.40;;;;;;;;;;5044755;28;20046;-82
2023/02/04 10:38:58;;;;;;;49.08;24.10;;;;;;;;;;5033348;28;20067;-80
2023/02/04 10:41:24;;;;;;;41.10;21.33;;;;;;;;;;5021344;28;20105;-81
2023/02/04 10:43:54;;;;;;;45.13;20.77;;;;;;;;;;5058088;28;20084;-84
2023/02/04 10:46:20;;;;;;;44.40;22.73;;;;;;;;;;5059126;28;20033;-83
2023/02/04 10:48:46;;;;;;;37.83;16.60;;;;;;;;;;5077882;28;20411;-85
2023/02/04 10:51:12;;;;;;;27.33;15.93;;;;;;;;;;5080570;28;20025;-83
2023/02/04 10:56:36;;;;;;;34.33;17.85;;;;;;;;;;5009858;28;20060;-82
2023/02/04 10:59:02;;;;;;;35.50;18.52;;;;;;;;;;5016829;28;20029;-84
2023/02/04 11:01:28;;;;;;;37.05;20.90;;;;;;;;;;5014413;28;20411;-82
2023/02/04 11:03:54;;;;;;;41.75;21.20;;;;;;;;;;5037975;28;20055;-82
2023/02/04 11:06:21;;;;;;;50.67;24.60;;;;;;;;;;5040498;28;20033;-81
2023/02/04 11:08:47;;;;;;;34.63;18.60;;;;;;;;;;5019454;28;20096;-81
2023/02/04 11:11:16;;;;;;;27.88;15.40;;;;;;;;;;5063817;28;20162;-83
2023/02/04 11:13:43;;;;;;;33.20;16.73;;;;;;;;;;5065407;28;20094;-82
2023/02/04 11:16:29;;;;;;;26.55;15.98;;;;;;;;;;5055554;28;20072;-80
2023/02/04 11:18:58;;;;;;;30.80;14.90;;;;;;;;;;5052018;28;20041;-80
2023/02/04 11:21:24;;;;;;;25.48;13.90;;;;;;;;;;5037214;28;20059;-82
2023/02/04 11:24:01;;;;;;;27.35;15.73;;;;;;;;;;5068192;28;20096;-81
2023/02/04 11:26:36;;;;;;;39.20;20.30;;;;;;;;;;5058450;28;20016;-82
2023/02/04 11:29:02;;;;;;;32.17;17.77;;;;;;;;;;5071018;28;20029;-81
2023/02/04 11:31:29;;;;;;;30.75;15.75;;;;;;;;;;5065175;28;20025;-84
2023/02/04 11:34:06;;;;;;;33.72;16.30;;;;;;;;;;5033298;28;20108;-84
2023/02/04 11:36:32;;;;;;;26.33;13.88;;;;;;;;;;5044884;28;20033;-83
2023/02/04 11:39:05;;;;;;;29.58;16.23;;;;;;;;;;5049291;28;20052;-83
2023/02/04 11:41:32;;;;;;;27.25;16.08;;;;;;;;;;5062658;28;20021;-82
2023/02/04 11:43:58;;;;;;;30.33;17.48;;;;;;;;;;5070964;28;20055;-85
2023/02/04 11:46:27;;;;;;;31.05;18.40;;;;;;;;;;5060395;28;20135;-75
2023/02/04 11:48:53;;;;;;;28.75;17.13;;;;;;;;;;5068652;28;20097;-73
2023/02/04 11:51:19;;;;;;;28.77;15.85;;;;;;;;;;5079854;28;20019;-80
2023/02/04 11:53:49;;;;;;;25.10;15.23;;;;;;;;;;5052528;28;20043;-75
2023/02/04 11:56:16;;;;;;;30.85;17.00;;;;;;;;;;5063375;28;20032;-81
2023/02/04 11:58:42;;;;;;;24.17;15.25;;;;;;;;;;5065655;28;20446;-82
2023/02/04 12:01:22;;;;;;;28.70;17.92;;;;;;;;;;5072429;28;20032;-85
2023/02/04 12:03:49;;;;;;;39.20;21.00;;;;;;;;;;5050357;28;20041;-87
2023/02/04 12:06:31;;;;;;;32.92;18.55;;;;;;;;;;5072184;28;20080;-85
2023/02/04 12:09:07;;;;;;;30.45;17.48;;;;;;;;;;5151539;22;20040;-87
2023/02/04 12:11:34;;;;;;;31.60;17.75;;;;;;;;;;5063763;28;20058;-86
2023/02/04 12:14:18;;;;;;;41.55;22.10;;;;;;;;;;5328700;22;20102;-89
2023/02/04 12:16:47;;;;;;;32.20;18.65;;;;;;;;;;5059728;28;20029;-84
2023/02/04 12:19:13;;;;;;;34.60;21.63;;;;;;;;;;5072637;28;20092;-82
2023/02/04 12:21:39;;;;;;;34.70;19.73;;;;;;;;;;5063947;28;20052;-87
2023/02/04 12:24:05;;;;;;;25.58;15.85;;;;;;;;;;5057683;28;20051;-83
2023/02/04 12:26:31;;;;;;;28.38;16.55;;;;;;;;;;5069627;28;20024;-85
2023/02/04 12:29:00;;;;;;;28.17;15.20;;;;;;;;;;5071084;28;20044;-82
2023/02/04 12:31:26;;;;;;;35.30;20.92;;;;;;;;;;5062945;28;20091;-85
2023/02/04 12:33:53;;;;;;;37.28;22.10;;;;;;;;;;5054979;28;20132;-85
2023/02/04 12:36:19;;;;;;;11.85;7.95;;;;;;;;;;5053743;28;20053;-85
2023/02/04 12:38:45;;;;;;;35.17;22.40;;;;;;;;;;5057612;28;20044;-85
2023/02/04 12:41:10;;;;;;;29.90;17.42;;;;;;;;;;5078133;28;20033;-86
2023/02/04 12:43:36;;;;;;;32.35;18.50;;;;;;;;;;5060750;28;20042;-85
2023/02/04 12:46:03;;;;;;;31.90;17.92;;;;;;;;;;5046705;28;20120;-82
2023/02/04 12:48:28;;;;;;;34.75;19.17;;;;;;;;;;5035792;28;20420;-82
2023/02/04 12:50:54;;;;;;;36.88;20.05;;;;;;;;;;5067847;28;20063;-86
2023/02/04 12:53:21;;;;;;;34.13;20.05;;;;;;;;;;5075220;28;20009;-85
2023/02/04 12:55:47;;;;;;;29.52;15.63;;;;;;;;;;5053480;28;20025;-83
2023/02/04 12:58:13;;;;;;;25.05;14.30;;;;;;;;;;5051836;28;20119;-80
2023/02/04 13:00:40;;;;;;;30.75;16.40;;;;;;;;;;5037996;28;20028;-84
2023/02/04 13:03:06;;;;;;;14.05;10.45;;;;;;;;;;5066814;28;20033;-82
2023/02/04 13:05:34;;;;;;;24.75;13.85;;;;;;;;;;5065892;28;20047;-84
2023/02/04 13:08:00;;;;;;;36.88;20.65;;;;;;;;;;5063278;28;20033;-85
2023/02/04 13:10:26;;;;;;;28.17;15.60;;;;;;;;;;5045762;28;20033;-84
2023/02/04 13:12:52;;;;;;;27.13;16.02;;;;;;;;;;5066438;28;20027;-83
2023/02/04 13:15:18;;;;;;;27.55;17.88;;;;;;;;;;5048372;28;20036;-82
2023/02/04 13:17:44;;;;;;;31.88;17.10;;;;;;;;;;5057877;28;20033;-85
2023/02/04 13:20:11;;;;;;;25.17;15.23;;;;;;;;;;5063045;28;20037;-84
2023/02/04 13:22:37;;;;;;;32.83;18.25;;;;;;;;;;5039172;28;20029;-82
2023/02/04 13:25:03;;;;;;;30.38;16.73;;;;;;;;;;5043773;28;20500;-83
2023/02/04 13:27:30;;;;;;;32.28;17.13;;;;;;;;;;5062722;28;20052;-82
2023/02/04 13:29:57;;;;;;;40.83;21.02;;;;;;;;;;5058998;28;20033;-83
2023/02/04 13:32:22;;;;;;;35.35;16.38;;;;;;;;;;5035719;28;20045;-83
2023/02/04 13:34:48;;;;;;;33.60;18.40;;;;;;;;;;5025522;28;20039;-82
2023/02/04 13:37:14;;;;;;;31.88;18.65;;;;;;;;;;5039721;28;20021;-81
2023/02/04 13:39:40;;;;;;;48.03;25.42;;;;;;;;;;5061365;28;20029;-82
2023/02/04 13:42:06;;;;;;;37.75;21.02;;;;;;;;;;5055128;28;20040;-81
2023/02/04 13:44:32;;;;;;;36.67;19.30;;;;;;;;;;5053132;28;20048;-79
2023/02/04 13:46:58;;;;;;;43.40;20.20;;;;;;;;;;5051058;28;20262;-81
2023/02/04 13:49:24;;;;;;;34.53;17.30;;;;;;;;;;5050962;28;20036;-82
2023/02/04 13:51:50;;;;;;;36.67;18.75;;;;;;;;;;5054038;28;20415;-81
2023/02/04 13:54:16;;;;;;;32.60;17.10;;;;;;;;;;5034246;28;20041;-82
2023/02/04 13:56:41;;;;;;;33.92;17.17;;;;;;;;;;5064451;28;20047;-84
2023/02/04 13:59:08;;;;;;;35.63;17.63;;;;;;;;;;5051059;28;20115;-85
2023/02/04 14:01:34;;;;;;;39.88;19.33;;;;;;;;;;5066396;28;20330;-82
2023/02/04 14:03:59;;;;;;;38.42;18.70;;;;;;;;;;5077994;28;20037;-84
2023/02/04 14:06:33;;;;;;;32.80;18.98;;;;;;;;;;5054381;28;20036;-81
2023/02/04 14:08:59;;;;;;;44.90;22.92;;;;;;;;;;5074678;28;20041;-84
2023/02/04 14:11:25;;;;;;;42.42;19.80;;;;;;;;;;5034586;28;20040;-83
2023/02/04 14:13:51;;;;;;;35.03;16.60;;;;;;;;;;5050673;28;20025;-85
2023/02/04 14:16:17;;;;;;;31.25;18.17;;;;;;;;;;5043055;28;20037;-85
2023/02/04 14:18:43;;;;;;;34.97;18.92;;;;;;;;;;5032928;28;20044;-85
2023/02/04 14:21:09;;;;;;;30.80;16.20;;;;;;;;;;5046511;28;20068;-82
2023/02/04 14:23:35;;;;;;;26.17;14.80;;;;;;;;;;5041222;28;20041;-83